createdAt,value
2023-10-26T00:00:40.457Z,143763.09
2023-10-26T00:03:07.637Z,143755.81
2023-10-26T00:05:34.875Z,143754.63
2023-10-26T00:08:02.037Z,143758.25
2023-10-26T00:10:29.171Z,143750.97
2023-10-26T00:12:56.213Z,143776.38
2023-10-26T00:15:23.354Z,143701.47
2023-10-26T00:17:50.585Z,143777.56
2023-10-26T00:20:17.848Z,143758.25
2023-10-26T00:22:44.955Z,143765.47
2023-10-26T00:25:12.271Z,143780.00
2023-10-26T00:27:42.087Z,143760.63
2023-10-26T00:30:11.895Z,143705.09
2023-10-26T00:32:39.346Z,143773.94
2023-10-26T00:35:07.041Z,143753.44
2023-10-26T00:37:34.098Z,143758.25
2023-10-26T00:40:01.149Z,143750.97
2023-10-26T00:42:28.310Z,143654.41
2023-10-26T00:44:58.133Z,143734.06
2023-10-26T00:47:27.193Z,143738.91
2023-10-26T00:49:57.545Z,143726.84
2023-10-26T00:52:24.671Z,143729.25
2023-10-26T00:54:53.639Z,143722.03
2023-10-26T00:57:24.961Z,143701.47
2023-10-26T00:59:53.321Z,143735.31
2023-10-26T01:02:21.203Z,143736.50
2023-10-26T01:04:48.671Z,143735.31
2023-10-26T01:07:16.598Z,143734.06
2023-10-26T01:09:43.920Z,143726.84
2023-10-26T01:12:11.469Z,143668.88
2023-10-26T01:14:38.718Z,143694.25
2023-10-26T01:17:06.243Z,143722.03
2023-10-26T01:19:48.713Z,143703.91
2023-10-26T01:22:15.873Z,143732.88
2023-10-26T01:24:43.298Z,143731.69
2023-10-26T01:27:10.736Z,143712.38
2023-10-26T01:29:37.834Z,143707.53
2023-10-26T01:32:05.166Z,143729.25
2023-10-26T01:34:32.560Z,143737.69
2023-10-26T01:36:59.922Z,143709.94
2023-10-26T01:39:27.144Z,143715.94
2023-10-26T01:41:54.300Z,143707.53
2023-10-26T01:44:21.444Z,143712.38
2023-10-26T01:46:48.508Z,143695.44
2023-10-26T01:49:17.084Z,143684.56
2023-10-26T01:51:44.216Z,143688.19
2023-10-26T01:54:12.810Z,143680.97
2023-10-26T01:56:40.187Z,143674.91
2023-10-26T01:59:07.259Z,143637.47
2023-10-26T02:01:34.327Z,143643.50
2023-10-26T02:04:01.426Z,143688.19
2023-10-26T02:06:28.576Z,143648.31
2023-10-26T02:08:57.402Z,143697.84
2023-10-26T02:11:24.628Z,143685.78
2023-10-26T02:13:51.716Z,143672.50
2023-10-26T02:16:21.164Z,143687.00
2023-10-26T02:18:48.539Z,143679.72
2023-10-26T02:21:15.685Z,143670.06
2023-10-26T02:23:42.871Z,143682.16
2023-10-26T02:26:10.043Z,143679.72
2023-10-26T02:28:37.167Z,143676.13
2023-10-26T02:31:05.027Z,143678.53
2023-10-26T02:33:32.123Z,143668.88
2023-10-26T02:35:59.353Z,143678.53
2023-10-26T02:38:26.495Z,143705.09
2023-10-26T02:40:54.047Z,143694.25
2023-10-26T02:43:21.148Z,143690.63
2023-10-26T02:45:48.404Z,143666.44
2023-10-26T02:48:16.237Z,143693.00
2023-10-26T02:50:43.876Z,143665.25
2023-10-26T02:53:10.910Z,143659.22
2023-10-26T02:55:38.080Z,143666.44
2023-10-26T02:58:05.437Z,143673.69
2023-10-26T03:00:32.645Z,143673.69
2023-10-26T03:03:00.218Z,143659.22
2023-10-26T03:05:27.484Z,143639.91
2023-10-26T03:07:54.550Z,143672.50
2023-10-26T03:10:21.943Z,143664.03
2023-10-26T03:12:49.780Z,143651.97
2023-10-26T03:15:17.949Z,143665.25
2023-10-26T03:17:45.781Z,143560.22
2023-10-26T03:20:12.989Z,143647.13
2023-10-26T03:22:40.110Z,143651.97
2023-10-26T03:25:07.937Z,143647.13
2023-10-26T03:27:35.182Z,143656.78
2023-10-26T03:30:02.408Z,143671.31
2023-10-26T03:32:29.550Z,143668.88
2023-10-26T03:34:59.099Z,143658.03
2023-10-26T03:37:26.585Z,143660.41
2023-10-26T03:39:54.094Z,143659.22
2023-10-26T03:42:21.211Z,143644.75
2023-10-26T03:44:48.302Z,143644.75
2023-10-26T03:47:15.855Z,143660.41
2023-10-26T03:49:44.558Z,143598.88
2023-10-26T03:52:12.715Z,143603.69
2023-10-26T03:54:40.105Z,143623.00
2023-10-26T03:57:07.658Z,143614.53
2023-10-26T03:59:34.823Z,143618.19
2023-10-26T04:02:02.041Z,143627.81
2023-10-26T04:04:29.151Z,143581.97
2023-10-26T04:06:56.186Z,143631.47
2023-10-26T04:09:23.934Z,143642.31
2023-10-26T04:11:51.140Z,143661.63
2023-10-26T04:14:19.031Z,143635.09
2023-10-26T04:16:48.813Z,143643.50
2023-10-26T04:19:15.896Z,143649.56
2023-10-26T04:21:43.387Z,143662.84
2023-10-26T04:24:10.487Z,143635.09
2023-10-26T04:26:38.171Z,143620.56
2023-10-26T04:29:07.002Z,143627.81
2023-10-26T04:31:35.586Z,143618.19
2023-10-26T04:34:03.128Z,143623.00
2023-10-26T04:36:30.477Z,143608.53
2023-10-26T04:38:57.802Z,143635.09
2023-10-26T04:41:24.926Z,143613.34
2023-10-26T04:43:51.955Z,143631.47
2023-10-26T04:46:19.125Z,143661.63
2023-10-26T04:48:46.240Z,143627.81
2023-10-26T04:51:13.902Z,143648.31
2023-10-26T04:53:41.024Z,143502.28
2023-10-26T04:56:11.464Z,143631.47
2023-10-26T04:58:39.315Z,143620.56
2023-10-26T05:01:06.856Z,143615.75
2023-10-26T05:03:33.970Z,143604.88
2023-10-26T05:06:01.140Z,143596.44
2023-10-26T05:08:28.257Z,143591.63
2023-10-26T05:10:55.312Z,143597.63
2023-10-26T05:13:23.064Z,143580.75
2023-10-26T05:15:50.143Z,143632.66
2023-10-26T05:18:18.551Z,143635.09
2023-10-26T05:20:52.363Z,143602.47
2023-10-26T05:23:19.429Z,143603.69
2023-10-26T05:25:48.603Z,143536.09
2023-10-26T05:28:16.747Z,143584.34
2023-10-26T05:30:43.861Z,143562.66
2023-10-26T05:33:11.026Z,143562.66
2023-10-26T05:35:38.208Z,143598.88
2023-10-26T05:38:05.232Z,143572.31
2023-10-26T05:40:32.369Z,143574.69
2023-10-26T05:42:59.521Z,143567.47
2023-10-26T05:45:26.645Z,143580.75
2023-10-26T05:47:53.972Z,143561.41
2023-10-26T05:50:21.521Z,143507.09
2023-10-26T05:52:48.757Z,143594.00
2023-10-26T05:55:15.901Z,143575.91
2023-10-26T05:57:43.036Z,143572.31
2023-10-26T06:00:11.163Z,143574.69
2023-10-26T06:02:40.977Z,143579.53
2023-10-26T06:05:09.174Z,143572.31
2023-10-26T06:07:36.279Z,143573.50
2023-10-26T06:10:04.187Z,143581.97
2023-10-26T06:12:31.332Z,143567.47
2023-10-26T06:14:58.561Z,143556.59
2023-10-26T06:17:25.769Z,143543.31
2023-10-26T06:19:52.920Z,143555.41
2023-10-26T06:22:19.975Z,143543.31
2023-10-26T06:24:47.549Z,143525.22
2023-10-26T06:27:16.517Z,143552.97
2023-10-26T06:29:44.821Z,143555.41
2023-10-26T06:32:13.177Z,143478.16
2023-10-26T06:34:40.330Z,143552.97
2023-10-26T06:37:07.452Z,143563.84
2023-10-26T06:39:34.549Z,143565.06
2023-10-26T06:42:01.713Z,143550.56
2023-10-26T06:44:30.470Z,143546.94
2023-10-26T06:46:57.864Z,143594.00
2023-10-26T06:49:30.699Z,143427.50
2023-10-26T06:51:58.386Z,143569.88
2023-10-26T06:54:25.464Z,143572.31
2023-10-26T06:56:52.714Z,143589.19
2023-10-26T06:59:19.835Z,143579.53
2023-10-26T07:02:08.930Z,143638.66
2023-10-26T07:04:34.489Z,143602.47
2023-10-26T07:07:01.599Z,143636.28
2023-10-26T07:09:30.023Z,143610.91
2023-10-26T07:11:57.102Z,143620.56
2023-10-26T07:14:24.302Z,143614.53
2023-10-26T07:16:51.405Z,143608.53
2023-10-26T07:19:18.490Z,143626.63
2023-10-26T07:21:45.779Z,143626.63
2023-10-26T07:24:13.110Z,143662.84
2023-10-26T07:26:42.928Z,143635.09
2023-10-26T07:29:09.991Z,143661.63
2023-10-26T07:31:37.032Z,143649.56
2023-10-26T07:34:04.124Z,143656.78
2023-10-26T07:36:32.032Z,143660.41
2023-10-26T07:39:45.920Z,143679.72
2023-10-26T07:42:06.817Z,143682.16
2023-10-26T07:44:36.551Z,143688.19
2023-10-26T07:47:03.976Z,143690.63
2023-10-26T07:49:32.120Z,143718.38
2023-10-26T07:51:59.214Z,143717.19
2023-10-26T07:54:26.244Z,143695.44
2023-10-26T07:56:53.314Z,143707.53
2023-10-26T07:59:20.411Z,143729.25
2023-10-26T08:01:48.957Z,143765.47
2023-10-26T08:04:16.366Z,143741.34
2023-10-26T08:06:43.549Z,143782.41
2023-10-26T08:09:10.674Z,143764.28
2023-10-26T08:11:38.399Z,143808.97
2023-10-26T08:14:42.454Z,143760.63
2023-10-26T08:16:53.706Z,143794.50
2023-10-26T08:19:21.121Z,143816.25
2023-10-26T08:21:48.200Z,143840.38
2023-10-26T08:24:16.568Z,143823.47
2023-10-26T08:26:43.611Z,143798.13
2023-10-26T08:29:18.540Z,143775.13
2023-10-26T08:31:48.928Z,143784.84
2023-10-26T08:34:16.157Z,143811.38
2023-10-26T08:36:50.815Z,143808.97
2023-10-26T08:39:23.656Z,143817.44
2023-10-26T08:41:55.008Z,143807.78
2023-10-26T08:44:22.148Z,143799.31
2023-10-26T08:46:52.483Z,143806.53
2023-10-26T08:49:23.150Z,143794.50
2023-10-26T08:51:51.612Z,143786.03
2023-10-26T08:54:18.678Z,143724.41
2023-10-26T08:56:46.171Z,143761.88
2023-10-26T08:59:14.454Z,143750.97
2023-10-26T09:01:46.728Z,143778.75
2023-10-26T09:04:15.578Z,143792.06
2023-10-26T09:06:47.129Z,143781.19
2023-10-26T09:09:16.352Z,143801.72
2023-10-26T09:11:47.791Z,143749.78
2023-10-26T09:14:16.743Z,143845.22
2023-10-26T09:16:46.416Z,143876.63
2023-10-26T09:19:15.617Z,143860.91
2023-10-26T09:21:58.895Z,143922.56
2023-10-26T09:24:27.925Z,143888.75
2023-10-26T09:27:01.797Z,143940.69
2023-10-26T09:29:39.916Z,143987.78
2023-10-26T09:32:07.662Z,143990.25
2023-10-26T09:34:42.481Z,144036.16
2023-10-26T09:37:10.607Z,144051.91
2023-10-26T09:39:39.984Z,144045.81
2023-10-26T09:42:12.046Z,144036.16
2023-10-26T09:44:39.768Z,144026.50
2023-10-26T09:47:07.781Z,144026.50
2023-10-26T09:49:35.472Z,143973.31
2023-10-26T09:52:02.965Z,144007.16
2023-10-26T09:54:34.845Z,143996.25
2023-10-26T09:57:19.999Z,144004.72
2023-10-26T09:59:53.085Z,143986.59
2023-10-26T10:02:21.557Z,143966.06
2023-10-26T10:04:49.676Z,143955.16
2023-10-26T10:07:46.489Z,143935.84
2023-10-26T10:10:14.870Z,143866.97
2023-10-26T10:12:43.778Z,143939.47
2023-10-26T10:17:44.977Z,143950.34
2023-10-26T10:20:14.804Z,143993.88
2023-10-26T10:22:41.805Z,144039.81
2023-10-26T10:25:12.852Z,144065.16
2023-10-26T10:27:59.921Z,144071.25
2023-10-26T10:30:32.231Z,144030.13
2023-10-26T10:33:02.510Z,144068.78
2023-10-26T10:35:36.155Z,144022.88
2023-10-26T10:38:12.653Z,143999.91
2023-10-26T10:40:41.662Z,144012.00
2023-10-26T10:43:09.842Z,144019.22
2023-10-26T10:45:36.916Z,143986.59
2023-10-26T10:48:05.894Z,144032.53
2023-10-26T10:50:33.135Z,144019.22
2023-10-26T10:53:00.899Z,144002.34
2023-10-26T10:55:30.200Z,143976.94
2023-10-26T10:58:04.360Z,143953.97
2023-10-26T11:00:46.664Z,143967.28
2023-10-26T11:03:20.805Z,143917.72
2023-10-26T11:05:48.895Z,143941.88
2023-10-26T11:08:16.185Z,143973.31
2023-10-26T11:10:49.356Z,143895.97
2023-10-26T11:13:21.202Z,143995.06
2023-10-26T11:15:49.179Z,144022.88
2023-10-26T11:18:16.433Z,144024.06
2023-10-26T11:20:47.493Z,144027.69
2023-10-26T11:23:17.519Z,144005.94
2023-10-26T11:25:48.186Z,144101.44
2023-10-26T11:28:15.517Z,144051.91
2023-10-26T11:30:50.467Z,144118.38
2023-10-26T11:33:54.790Z,144135.31
2023-10-26T11:36:21.966Z,144154.66
2023-10-26T11:38:50.509Z,144206.69
2023-10-26T11:41:24.698Z,144145.00
2023-10-26T11:43:52.077Z,144226.03
2023-10-26T11:46:32.499Z,144228.44
2023-10-26T11:49:01.022Z,144275.63
2023-10-26T11:51:29.336Z,144272.00
2023-10-26T11:53:58.300Z,144132.88
2023-10-26T11:56:25.374Z,144182.47
2023-10-26T11:58:52.459Z,144251.47
2023-10-26T12:01:19.538Z,144210.28
2023-10-26T12:03:48.341Z,144220.00
2023-10-26T12:06:16.497Z,144195.78
2023-10-26T12:08:43.628Z,144249.00
2023-10-26T12:11:12.276Z,144186.09
2023-10-26T12:13:39.992Z,144132.88
2023-10-26T12:16:07.043Z,144198.22
2023-10-26T12:18:35.858Z,144164.31
2023-10-26T12:21:03.147Z,144181.28
2023-10-26T12:23:30.674Z,144122.00
2023-10-26T12:25:58.475Z,144175.25
2023-10-26T12:28:28.567Z,144163.13
2023-10-26T12:30:58.451Z,144132.88
2023-10-26T12:33:25.784Z,144159.50
2023-10-26T12:35:52.957Z,144166.75
2023-10-26T12:38:23.742Z,144195.78
2023-10-26T12:40:50.849Z,144241.72
2023-10-26T12:43:17.919Z,144244.19
2023-10-26T12:45:44.997Z,144297.44
2023-10-26T12:48:12.128Z,144350.63
2023-10-26T12:50:39.270Z,144324.06
2023-10-26T12:53:06.507Z,144324.06
2023-10-26T12:55:35.395Z,144226.03
2023-10-26T12:58:02.663Z,144292.59
2023-10-26T13:00:31.516Z,144297.44
2023-10-26T13:02:58.833Z,144292.59
2023-10-26T13:05:25.935Z,144274.44
2023-10-26T13:07:53.414Z,144278.03
2023-10-26T13:10:20.578Z,144297.44
2023-10-26T13:12:48.432Z,144324.06
2023-10-26T13:15:20.381Z,144355.47
2023-10-26T13:17:49.614Z,144320.41
2023-10-26T13:20:16.797Z,144343.41
2023-10-26T13:22:43.856Z,144332.47
2023-10-26T13:25:10.945Z,144345.78
2023-10-26T13:27:38.058Z,144331.28
2023-10-26T13:30:06.996Z,144325.25
2023-10-26T13:32:34.461Z,144281.66
2023-10-26T13:35:01.593Z,144330.09
2023-10-26T13:37:28.764Z,144285.31
2023-10-26T13:39:55.908Z,144256.28
2023-10-26T13:42:23.143Z,144251.47
2023-10-26T13:44:50.196Z,144320.41
2023-10-26T13:47:17.272Z,144389.38
2023-10-26T13:49:44.561Z,144418.41
2023-10-26T13:52:11.796Z,144411.19
2023-10-26T13:54:38.982Z,144361.56
2023-10-26T13:57:09.704Z,144384.53
2023-10-26T13:59:36.944Z,144350.63
2023-10-26T14:02:04.957Z,144362.75
2023-10-26T14:04:37.386Z,144414.81
2023-10-26T14:07:07.906Z,144374.88
2023-10-26T14:09:35.006Z,144282.88
2023-10-26T14:12:02.783Z,144314.34
2023-10-26T14:14:31.151Z,144314.34
2023-10-26T14:16:58.649Z,144294.97
2023-10-26T14:19:25.951Z,144244.19
2023-10-26T14:21:53.154Z,144246.56
2023-10-26T14:24:20.274Z,144165.56
2023-10-26T14:26:47.438Z,144209.09
2023-10-26T14:29:14.883Z,144176.44
2023-10-26T14:31:42.126Z,144203.06
2023-10-26T14:34:09.299Z,144195.78
2023-10-26T14:36:36.454Z,144181.28
2023-10-26T14:39:05.473Z,144134.13
2023-10-26T14:41:32.602Z,144216.38
2023-10-26T14:43:59.734Z,144245.38
2023-10-26T14:46:29.497Z,144227.22
2023-10-26T14:48:57.273Z,144215.16
2023-10-26T14:51:24.461Z,144222.41
2023-10-26T14:53:51.515Z,144229.66
2023-10-26T14:56:18.616Z,144197.03
2023-10-26T14:58:45.730Z,144178.88
2023-10-26T15:01:13.053Z,144200.63
2023-10-26T15:03:40.695Z,144195.78
2023-10-26T15:06:07.906Z,144157.09
2023-10-26T15:08:35.201Z,144228.44
2023-10-26T15:11:22.819Z,144213.91
2023-10-26T15:13:49.328Z,144176.44
2023-10-26T15:16:16.647Z,144138.97
2023-10-26T15:18:43.743Z,144113.53
2023-10-26T15:21:10.904Z,144111.16
2023-10-26T15:23:37.964Z,144099.03
2023-10-26T15:26:06.662Z,144099.03
2023-10-26T15:28:34.031Z,144082.09
2023-10-26T15:31:02.245Z,144074.88
2023-10-26T15:33:30.301Z,144071.25
2023-10-26T15:35:57.737Z,144045.81
2023-10-26T15:38:28.976Z,143989.03
2023-10-26T15:41:06.621Z,144053.09
2023-10-26T15:43:34.909Z,144028.91
2023-10-26T15:46:05.668Z,144010.75
2023-10-26T15:49:31.610Z,143845.22
2023-10-26T15:51:21.794Z,144015.63
2023-10-26T15:53:48.843Z,144007.16
2023-10-26T15:56:16.019Z,144016.84
2023-10-26T15:58:43.065Z,144026.50
2023-10-26T16:01:13.546Z,143995.06
2023-10-26T16:03:42.869Z,143973.31
2023-10-26T16:06:15.904Z,143951.53
2023-10-26T16:08:43.029Z,143941.88
2023-10-26T16:11:14.226Z,143966.06
2023-10-26T16:13:46.538Z,143944.31
2023-10-26T16:16:14.383Z,143927.38
2023-10-26T16:18:47.501Z,143929.81
2023-10-26T16:21:15.262Z,143931.00
2023-10-26T16:23:43.077Z,143939.47
2023-10-26T16:26:10.211Z,143917.72
2023-10-26T16:28:39.698Z,143941.88
2023-10-26T16:31:06.939Z,143926.19
2023-10-26T16:33:34.172Z,143912.88
2023-10-26T16:36:01.320Z,143905.63
2023-10-26T16:38:28.376Z,143883.84
2023-10-26T16:40:55.713Z,143886.31
2023-10-26T16:43:23.575Z,143755.81
2023-10-26T16:45:50.830Z,143883.84
2023-10-26T16:48:21.328Z,143885.09
2023-10-26T16:50:48.638Z,143876.63
2023-10-26T16:53:29.940Z,143879.03
2023-10-26T16:56:02.988Z,143876.63
2023-10-26T16:58:32.534Z,143889.94
2023-10-26T17:01:00.072Z,143804.16
2023-10-26T17:03:28.130Z,143876.63
2023-10-26T17:05:55.378Z,143876.63
2023-10-26T17:08:22.605Z,143869.38
2023-10-26T17:10:49.770Z,143864.53
2023-10-26T17:13:17.564Z,143846.41
2023-10-26T17:15:45.902Z,143874.19
2023-10-26T17:18:13.156Z,143885.09
2023-10-26T17:20:40.221Z,143876.63
2023-10-26T17:23:07.319Z,143862.16
2023-10-26T17:25:35.701Z,143819.81
2023-10-26T17:28:03.176Z,143864.53
2023-10-26T17:30:30.794Z,143862.16
2023-10-26T17:32:58.309Z,143874.19
2023-10-26T17:35:25.464Z,143864.53
2023-10-26T17:37:55.415Z,143869.38
2023-10-26T17:40:23.503Z,143869.38
2023-10-26T17:42:51.074Z,143889.94
2023-10-26T17:45:19.651Z,143871.81
2023-10-26T17:47:46.930Z,143883.84
2023-10-26T17:50:14.708Z,143862.16
2023-10-26T17:52:41.931Z,143875.44
2023-10-26T17:55:09.685Z,143859.72
2023-10-26T17:57:37.901Z,143859.72
2023-10-26T18:00:05.777Z,143777.56
2023-10-26T18:02:38.860Z,143850.03
2023-10-26T18:05:06.245Z,143842.78
2023-10-26T18:07:34.698Z,143852.47
2023-10-26T18:10:01.795Z,143842.78
2023-10-26T18:12:28.887Z,143847.63
2023-10-26T18:14:55.970Z,143847.63
2023-10-26T18:17:24.985Z,143848.84
2023-10-26T18:19:52.223Z,143743.78
2023-10-26T18:22:19.446Z,143858.50
2023-10-26T18:24:48.797Z,143840.38
2023-10-26T18:27:16.607Z,143825.91
2023-10-26T18:29:46.775Z,143812.63
2023-10-26T18:32:14.469Z,143825.91
2023-10-26T18:34:43.065Z,143808.97
2023-10-26T18:37:10.517Z,143796.88
2023-10-26T18:39:37.902Z,143796.88
2023-10-26T18:42:05.924Z,143796.88
2023-10-26T18:44:33.137Z,143799.31
2023-10-26T18:47:00.280Z,143793.25
2023-10-26T18:49:28.621Z,143794.50
2023-10-26T18:51:56.024Z,143792.06
2023-10-26T18:54:23.175Z,143792.06
2023-10-26T18:56:50.272Z,143752.19
2023-10-26T18:59:17.578Z,143799.31
2023-10-26T19:01:45.250Z,143799.31
2023-10-26T19:04:12.542Z,143796.88
2023-10-26T19:06:41.270Z,143794.50
2023-10-26T19:09:08.436Z,143801.72
2023-10-26T19:11:36.886Z,143796.88
2023-10-26T19:14:04.774Z,143787.22
2023-10-26T19:16:32.104Z,143801.72
2023-10-26T19:18:59.423Z,143801.72
2023-10-26T19:21:27.441Z,143741.34
2023-10-26T19:23:54.546Z,143813.81
2023-10-26T19:26:21.781Z,143781.19
2023-10-26T19:28:49.612Z,143794.50
2023-10-26T19:31:16.890Z,143799.31
2023-10-26T19:33:46.563Z,143790.84
2023-10-26T19:36:13.784Z,143703.91
2023-10-26T19:38:40.835Z,143796.88
2023-10-26T19:41:08.295Z,143784.84
2023-10-26T19:43:35.884Z,143813.81
2023-10-26T19:46:03.208Z,143742.53
2023-10-26T19:48:30.395Z,143792.06
2023-10-26T19:50:57.454Z,143787.22
2023-10-26T19:53:24.753Z,143772.75
2023-10-26T19:55:53.606Z,143782.41
2023-10-26T19:58:20.671Z,143775.13
2023-10-26T20:00:47.865Z,143764.28
2023-10-26T20:03:15.255Z,143780.00
2023-10-26T20:05:42.373Z,143782.41
2023-10-26T20:08:11.324Z,143782.41
2023-10-26T20:10:38.337Z,143778.75
2023-10-26T20:13:05.559Z,143769.09
2023-10-26T20:15:32.750Z,143777.56
2023-10-26T20:17:59.831Z,143776.38
2023-10-26T20:20:29.451Z,143767.91
2023-10-26T20:22:56.530Z,143770.31
2023-10-26T20:25:23.668Z,143775.13
2023-10-26T20:27:50.820Z,143767.91
2023-10-26T20:30:18.152Z,143775.13
2023-10-26T20:32:45.253Z,143765.47
2023-10-26T20:35:12.455Z,143767.91
2023-10-26T20:37:40.479Z,143725.66
2023-10-26T20:40:08.626Z,143760.63
2023-10-26T20:42:37.880Z,143750.97
2023-10-26T20:45:05.398Z,143746.16
2023-10-26T20:47:32.544Z,143748.59
2023-10-26T20:49:59.731Z,143759.44
2023-10-26T20:52:28.177Z,143753.44
2023-10-26T20:54:55.277Z,143763.09
2023-10-26T20:57:22.398Z,143758.25
2023-10-26T20:59:49.902Z,143769.09
2023-10-26T21:02:17.107Z,143777.56
2023-10-26T21:04:44.184Z,143782.41
2023-10-26T21:07:11.331Z,143789.66
2023-10-26T21:09:38.452Z,143796.88
2023-10-26T21:12:05.829Z,143796.88
2023-10-26T21:14:32.976Z,143795.69
2023-10-26T21:17:00.140Z,143792.06
2023-10-26T21:19:27.384Z,143792.06
2023-10-26T21:21:58.362Z,143794.50
2023-10-26T21:24:25.618Z,143794.50
2023-10-26T21:26:52.652Z,143780.00
2023-10-26T21:29:19.693Z,143800.50
2023-10-26T21:31:46.779Z,143811.38
2023-10-26T21:34:13.968Z,143810.16
2023-10-26T21:36:41.062Z,143806.53
2023-10-26T21:39:08.231Z,143811.38
2023-10-26T21:41:35.357Z,143821.06
2023-10-26T21:44:02.469Z,143804.16
2023-10-26T21:46:29.577Z,143802.94
2023-10-26T21:48:57.044Z,143801.72
2023-10-26T21:51:24.268Z,143802.94
2023-10-26T21:53:51.313Z,143793.25
2023-10-26T21:56:18.497Z,143794.50
2023-10-26T21:58:46.529Z,143800.50
2023-10-26T22:01:14.226Z,143796.88
2023-10-26T22:03:43.167Z,143802.94
2023-10-26T22:06:12.686Z,143799.31
2023-10-26T22:08:39.998Z,143799.31
2023-10-26T22:11:07.117Z,143784.84
2023-10-26T22:13:34.377Z,143705.09
2023-10-26T22:16:01.499Z,143787.22
2023-10-26T22:18:28.733Z,143782.41
2023-10-26T22:20:55.911Z,143776.38
2023-10-26T22:23:22.945Z,143767.91
2023-10-26T22:25:57.646Z,143765.47
2023-10-26T22:28:24.823Z,143767.91
2023-10-26T22:30:52.145Z,143758.25
2023-10-26T22:33:19.482Z,143765.47
2023-10-26T22:35:46.957Z,143769.09
2023-10-26T22:38:14.429Z,143767.91
2023-10-26T22:40:41.434Z,143763.09
2023-10-26T22:43:08.761Z,143755.81
2023-10-26T22:45:35.852Z,143760.63
2023-10-26T22:48:03.326Z,143760.63
2023-10-26T22:50:30.579Z,143759.44
2023-10-26T22:52:57.646Z,143746.16
2023-10-26T22:55:24.863Z,143753.44
2023-10-26T22:57:52.034Z,143752.19
2023-10-26T23:00:19.405Z,143760.63
2023-10-26T23:02:46.486Z,143763.09
2023-10-26T23:05:13.596Z,143763.09
2023-10-26T23:07:40.785Z,143767.91
2023-10-26T23:10:08.075Z,143639.91
2023-10-26T23:12:35.138Z,143758.25
2023-10-26T23:15:02.212Z,143738.91
2023-10-26T23:17:29.280Z,143738.91
2023-10-26T23:19:56.389Z,143731.69
2023-10-26T23:22:23.449Z,143731.69
2023-10-26T23:24:50.640Z,143722.03
2023-10-26T23:27:17.689Z,143719.59
2023-10-26T23:29:44.864Z,143711.13
2023-10-26T23:32:12.020Z,143700.28
2023-10-26T23:34:39.208Z,143693.00
2023-10-26T23:37:06.572Z,143683.34
2023-10-26T23:39:37.177Z,143671.31
2023-10-26T23:42:05.463Z,143654.41
2023-10-26T23:44:35.566Z,143649.56
2023-10-26T23:47:02.624Z,143639.91
2023-10-26T23:49:29.811Z,143639.91
2023-10-26T23:51:56.896Z,143655.59
2023-10-26T23:54:25.292Z,143649.56
2023-10-26T23:56:52.816Z,143610.91
2023-10-26T23:59:19.898Z,143650.75
